sensor_id;sensor_type;location;lat;lon;timestamp;P1;durP1;ratioP1;P2;durP2;ratioP2
69485;SDS011;56677;51.710;5.366;2023-04-28T05:44:43;4.37;;;2.47;;
69485;SDS011;56677;51.710;5.366;2023-04-28T05:47:08;5.43;;;2.67;;
69485;SDS011;56677;51.710;5.366;2023-04-28T05:49:33;5.22;;;2.40;;
69485;SDS011;56677;51.710;5.366;2023-04-28T05:51:58;3.55;;;2.38;;
69485;SDS011;56677;51.710;5.366;2023-04-28T05:54:24;3.93;;;2.47;;
69485;SDS011;56677;51.710;5.366;2023-04-28T05:56:49;7.70;;;2.60;;
69485;SDS011;56677;51.710;5.366;2023-04-28T05:59:14;5.03;;;2.00;;
69485;SDS011;56677;51.710;5.366;2023-04-28T06:01:39;3.83;;;2.23;;
69485;SDS011;56677;51.710;5.366;2023-04-28T06:04:04;4.18;;;2.75;;
69485;SDS011;56677;51.710;5.366;2023-04-28T06:06:29;3.30;;;2.10;;
69485;SDS011;56677;51.710;5.366;2023-04-28T06:08:54;6.15;;;2.42;;
69485;SDS011;56677;51.710;5.366;2023-04-28T06:11:20;2.60;;;1.85;;
69485;SDS011;56677;51.710;5.366;2023-04-28T06:13:45;3.13;;;2.15;;
69485;SDS011;56677;51.710;5.366;2023-04-28T06:16:10;5.10;;;2.05;;
69485;SDS011;56677;51.710;5.366;2023-04-28T06:18:35;5.43;;;2.40;;
69485;SDS011;56677;51.710;5.366;2023-04-28T06:21:00;4.80;;;1.90;;
69485;SDS011;56677;51.710;5.366;2023-04-28T06:23:25;3.53;;;2.17;;
69485;SDS011;56677;51.710;5.366;2023-04-28T06:25:50;4.50;;;2.20;;
69485;SDS011;56677;51.710;5.366;2023-04-28T06:28:16;4.13;;;2.13;;
69485;SDS011;56677;51.710;5.366;2023-04-28T06:30:41;4.05;;;2.20;;
69485;SDS011;56677;51.710;5.366;2023-04-28T06:33:06;5.65;;;2.03;;
69485;SDS011;56677;51.710;5.366;2023-04-28T06:35:31;6.50;;;2.22;;
69485;SDS011;56677;51.710;5.366;2023-04-28T06:37:56;5.07;;;1.83;;
69485;SDS011;56677;51.710;5.366;2023-04-28T06:40:21;5.10;;;2.13;;
69485;SDS011;56677;51.710;5.366;2023-04-28T06:42:46;5.22;;;2.00;;
69485;SDS011;56677;51.710;5.366;2023-04-28T06:45:11;9.32;;;2.60;;
69485;SDS011;56677;51.710;5.366;2023-04-28T06:47:37;9.23;;;2.70;;
69485;SDS011;56677;51.710;5.366;2023-04-28T06:50:02;5.38;;;2.15;;
69485;SDS011;56677;51.710;5.366;2023-04-28T06:52:27;10.30;;;2.20;;
69485;SDS011;56677;51.710;5.366;2023-04-28T06:54:52;10.18;;;2.03;;
69485;SDS011;56677;51.710;5.366;2023-04-28T06:57:17;10.15;;;2.25;;
69485;SDS011;56677;51.710;5.366;2023-04-28T06:59:42;14.88;;;2.50;;
69485;SDS011;56677;51.710;5.366;2023-04-28T07:02:08;9.33;;;2.67;;
69485;SDS011;56677;51.710;5.366;2023-04-28T07:04:33;8.95;;;2.65;;
69485;SDS011;56677;51.710;5.366;2023-04-28T07:06:58;20.02;;;3.35;;
69485;SDS011;56677;51.710;5.366;2023-04-28T07:09:23;15.30;;;3.63;;
69485;SDS011;56677;51.710;5.366;2023-04-28T07:11:48;13.55;;;3.10;;
69485;SDS011;56677;51.710;5.366;2023-04-28T07:14:13;16.45;;;3.20;;
69485;SDS011;56677;51.710;5.366;2023-04-28T07:16:39;19.27;;;2.58;;
69485;SDS011;56677;51.710;5.366;2023-04-28T07:19:04;15.60;;;2.50;;
69485;SDS011;56677;51.710;5.366;2023-04-28T07:21:29;13.40;;;2.70;;
69485;SDS011;56677;51.710;5.366;2023-04-28T07:23:54;12.93;;;3.00;;
69485;SDS011;56677;51.710;5.366;2023-04-28T07:26:19;9.52;;;2.60;;
69485;SDS011;56677;51.710;5.366;2023-04-28T07:28:44;10.95;;;2.70;;
69485;SDS011;56677;51.710;5.366;2023-04-28T07:31:09;16.17;;;2.67;;
69485;SDS011;56677;51.710;5.366;2023-04-28T07:33:34;12.80;;;2.60;;
69485;SDS011;56677;51.710;5.366;2023-04-28T07:35:59;8.70;;;3.00;;
69485;SDS011;56677;51.710;5.366;2023-04-28T07:38:25;8.40;;;2.65;;
69485;SDS011;56677;51.710;5.366;2023-04-28T07:40:50;13.15;;;2.58;;
69485;SDS011;56677;51.710;5.366;2023-04-28T07:43:15;12.43;;;2.28;;
69485;SDS011;56677;51.710;5.366;2023-04-28T07:45:40;14.73;;;3.35;;
69485;SDS011;56677;51.710;5.366;2023-04-28T07:48:05;14.50;;;3.67;;
69485;SDS011;56677;51.710;5.366;2023-04-28T07:50:31;7.73;;;2.70;;
69485;SDS011;56677;51.710;5.366;2023-04-28T07:52:56;7.30;;;2.30;;
69485;SDS011;56677;51.710;5.366;2023-04-28T07:55:22;8.38;;;2.30;;
69485;SDS011;56677;51.710;5.366;2023-04-28T07:57:47;10.77;;;2.30;;
69485;SDS011;56677;51.710;5.366;2023-04-28T08:00:12;9.15;;;2.90;;
69485;SDS011;56677;51.710;5.366;2023-04-28T08:02:37;8.47;;;2.03;;
69485;SDS011;56677;51.710;5.366;2023-04-28T08:05:03;9.90;;;2.50;;
69485;SDS011;56677;51.710;5.366;2023-04-28T08:07:28;19.67;;;2.83;;
69485;SDS011;56677;51.710;5.366;2023-04-28T08:09:53;13.90;;;2.33;;
69485;SDS011;56677;51.710;5.366;2023-04-28T08:12:18;8.50;;;2.30;;
69485;SDS011;56677;51.710;5.366;2023-04-28T08:14:43;16.38;;;2.58;;
69485;SDS011;56677;51.710;5.366;2023-04-28T08:17:08;8.52;;;2.45;;
69485;SDS011;56677;51.710;5.366;2023-04-28T08:19:33;18.10;;;2.42;;
69485;SDS011;56677;51.710;5.366;2023-04-28T08:21:59;16.60;;;3.20;;
69485;SDS011;56677;51.710;5.366;2023-04-28T08:24:24;12.73;;;2.40;;
69485;SDS011;56677;51.710;5.366;2023-04-28T08:26:49;12.70;;;2.22;;
69485;SDS011;56677;51.710;5.366;2023-04-28T08:29:14;12.47;;;2.67;;
69485;SDS011;56677;51.710;5.366;2023-04-28T08:31:39;12.02;;;2.20;;
69485;SDS011;56677;51.710;5.366;2023-04-28T08:34:04;10.40;;;2.40;;
69485;SDS011;56677;51.710;5.366;2023-04-28T08:36:29;11.60;;;2.72;;
69485;SDS011;56677;51.710;5.366;2023-04-28T08:38:54;15.13;;;2.45;;
69485;SDS011;56677;51.710;5.366;2023-04-28T08:41:20;14.82;;;2.65;;
69485;SDS011;56677;51.710;5.366;2023-04-28T08:43:45;8.40;;;2.50;;
69485;SDS011;56677;51.710;5.366;2023-04-28T08:46:10;8.98;;;2.40;;
69485;SDS011;56677;51.710;5.366;2023-04-28T08:48:42;11.17;;;2.67;;
69485;SDS011;56677;51.710;5.366;2023-04-28T08:51:07;10.70;;;2.60;;
69485;SDS011;56677;51.710;5.366;2023-04-28T08:53:35;10.37;;;2.07;;
69485;SDS011;56677;51.710;5.366;2023-04-28T08:56:00;7.82;;;2.53;;
69485;SDS011;56677;51.710;5.366;2023-04-28T08:58:27;10.73;;;2.50;;
69485;SDS011;56677;51.710;5.366;2023-04-28T09:00:52;6.87;;;1.87;;
69485;SDS011;56677;51.710;5.366;2023-04-28T09:03:17;7.50;;;2.63;;
69485;SDS011;56677;51.710;5.366;2023-04-28T09:05:42;6.90;;;2.60;;
69485;SDS011;56677;51.710;5.366;2023-04-28T09:08:07;9.80;;;2.53;;
69485;SDS011;56677;51.710;5.366;2023-04-28T09:10:32;7.13;;;2.30;;
69485;SDS011;56677;51.710;5.366;2023-04-28T09:12:58;4.90;;;1.90;;
69485;SDS011;56677;51.710;5.366;2023-04-28T09:15:26;12.20;;;2.30;;
69485;SDS011;56677;51.710;5.366;2023-04-28T09:17:52;13.48;;;2.42;;
69485;SDS011;56677;51.710;5.366;2023-04-28T09:20:27;10.77;;;2.40;;
69485;SDS011;56677;51.710;5.366;2023-04-28T09:22:53;10.80;;;2.47;;
69485;SDS011;56677;51.710;5.366;2023-04-28T09:25:18;12.60;;;2.85;;
69485;SDS011;56677;51.710;5.366;2023-04-28T09:27:44;10.10;;;2.73;;
69485;SDS011;56677;51.710;5.366;2023-04-28T09:30:09;13.25;;;2.15;;
69485;SDS011;56677;51.710;5.366;2023-04-28T09:32:34;9.03;;;2.50;;
69485;SDS011;56677;51.710;5.366;2023-04-28T09:35:00;15.43;;;2.57;;
69485;SDS011;56677;51.710;5.366;2023-04-28T09:37:25;10.85;;;3.03;;
69485;SDS011;56677;51.710;5.366;2023-04-28T09:39:52;11.23;;;3.60;;
69485;SDS011;56677;51.710;5.366;2023-04-28T09:42:36;7.70;;;2.42;;
69485;SDS011;56677;51.710;5.366;2023-04-28T09:45:03;9.50;;;2.20;;
69485;SDS011;56677;51.710;5.366;2023-04-28T09:47:28;6.80;;;2.20;;
69485;SDS011;56677;51.710;5.366;2023-04-28T09:49:57;8.65;;;2.45;;
69485;SDS011;56677;51.710;5.366;2023-04-28T09:52:23;7.15;;;2.30;;
69485;SDS011;56677;51.710;5.366;2023-04-28T09:54:49;11.60;;;2.10;;
69485;SDS011;56677;51.710;5.366;2023-04-28T09:57:14;8.07;;;2.30;;
69485;SDS011;56677;51.710;5.366;2023-04-28T09:59:41;9.68;;;2.72;;
69485;SDS011;56677;51.710;5.366;2023-04-28T10:02:08;7.07;;;2.50;;
69485;SDS011;56677;51.710;5.366;2023-04-28T10:04:33;6.57;;;2.28;;
69485;SDS011;56677;51.710;5.366;2023-04-28T10:06:59;10.17;;;2.67;;
69485;SDS011;56677;51.710;5.366;2023-04-28T10:09:24;5.75;;;2.00;;
69485;SDS011;56677;51.710;5.366;2023-04-28T10:11:50;7.83;;;2.30;;
69485;SDS011;56677;51.710;5.366;2023-04-28T10:14:15;7.47;;;2.10;;
69485;SDS011;56677;51.710;5.366;2023-04-28T10:16:40;6.33;;;2.30;;
69485;SDS011;56677;51.710;5.366;2023-04-28T10:19:05;7.43;;;2.00;;
69485;SDS011;56677;51.710;5.366;2023-04-28T10:21:31;10.37;;;2.20;;
69485;SDS011;56677;51.710;5.366;2023-04-28T10:24:02;8.43;;;2.17;;
69485;SDS011;56677;51.710;5.366;2023-04-28T10:26:53;7.93;;;1.75;;
69485;SDS011;56677;51.710;5.366;2023-04-28T10:29:15;5.40;;;2.30;;
69485;SDS011;56677;51.710;5.366;2023-04-28T10:31:43;7.40;;;2.30;;
69485;SDS011;56677;51.710;5.366;2023-04-28T10:34:25;5.40;;;2.15;;
69485;SDS011;56677;51.710;5.366;2023-04-28T10:36:51;6.72;;;2.08;;
69485;SDS011;56677;51.710;5.366;2023-04-28T10:39:16;6.77;;;2.30;;
69485;SDS011;56677;51.710;5.366;2023-04-28T10:41:41;6.63;;;2.00;;
69485;SDS011;56677;51.710;5.366;2023-04-28T10:47:00;8.90;;;2.38;;
69485;SDS011;56677;51.710;5.366;2023-04-28T10:50:02;6.43;;;1.90;;
69485;SDS011;56677;51.710;5.366;2023-04-28T10:57:38;7.80;;;2.47;;
69485;SDS011;56677;51.710;5.366;2023-04-28T11:02:47;5.68;;;2.38;;
69485;SDS011;56677;51.710;5.366;2023-04-28T11:05:12;7.00;;;1.97;;
69485;SDS011;56677;51.710;5.366;2023-04-28T11:07:37;7.23;;;2.00;;
69485;SDS011;56677;51.710;5.366;2023-04-28T11:10:03;7.05;;;1.83;;
69485;SDS011;56677;51.710;5.366;2023-04-28T11:12:28;8.70;;;2.50;;
69485;SDS011;56677;51.710;5.366;2023-04-28T11:14:53;8.57;;;2.33;;
69485;SDS011;56677;51.710;5.366;2023-04-28T11:17:18;10.73;;;2.38;;
69485;SDS011;56677;51.710;5.366;2023-04-28T11:19:57;8.25;;;1.95;;
69485;SDS011;56677;51.710;5.366;2023-04-28T11:22:22;5.30;;;2.30;;
69485;SDS011;56677;51.710;5.366;2023-04-28T11:25:21;7.28;;;2.33;;
69485;SDS011;56677;51.710;5.366;2023-04-28T11:27:39;5.32;;;1.90;;
69485;SDS011;56677;51.710;5.366;2023-04-28T11:30:18;6.03;;;1.80;;
69485;SDS011;56677;51.710;5.366;2023-04-28T11:32:43;7.13;;;2.20;;
69485;SDS011;56677;51.710;5.366;2023-04-28T11:35:08;5.53;;;1.80;;
69485;SDS011;56677;51.710;5.366;2023-04-28T11:37:33;5.70;;;1.80;;
69485;SDS011;56677;51.710;5.366;2023-04-28T11:40:08;8.10;;;2.40;;
69485;SDS011;56677;51.710;5.366;2023-04-28T11:42:33;4.78;;;2.13;;
69485;SDS011;56677;51.710;5.366;2023-04-28T11:44:58;6.00;;;2.38;;
69485;SDS011;56677;51.710;5.366;2023-04-28T11:47:27;6.22;;;2.92;;
69485;SDS011;56677;51.710;5.366;2023-04-28T11:49:52;5.97;;;2.00;;
69485;SDS011;56677;51.710;5.366;2023-04-28T11:52:17;3.35;;;2.00;;
69485;SDS011;56677;51.710;5.366;2023-04-28T11:54:43;5.80;;;2.23;;
69485;SDS011;56677;51.710;5.366;2023-04-28T11:57:17;6.83;;;2.10;;
69485;SDS011;56677;51.710;5.366;2023-04-28T11:59:43;5.80;;;2.40;;
69485;SDS011;56677;51.710;5.366;2023-04-28T12:02:08;3.40;;;1.73;;
69485;SDS011;56677;51.710;5.366;2023-04-28T12:10:11;5.82;;;2.17;;
69485;SDS011;56677;51.710;5.366;2023-04-28T12:12:37;4.18;;;1.65;;
69485;SDS011;56677;51.710;5.366;2023-04-28T12:15:05;4.53;;;2.13;;
69485;SDS011;56677;51.710;5.366;2023-04-28T12:20:03;6.03;;;2.50;;
69485;SDS011;56677;51.710;5.366;2023-04-28T12:22:29;7.65;;;1.90;;
69485;SDS011;56677;51.710;5.366;2023-04-28T12:27:28;5.03;;;1.87;;
69485;SDS011;56677;51.710;5.366;2023-04-28T12:29:54;6.00;;;2.03;;
69485;SDS011;56677;51.710;5.366;2023-04-28T12:32:19;3.65;;;1.70;;
69485;SDS011;56677;51.710;5.366;2023-04-28T12:34:44;5.07;;;2.05;;
69485;SDS011;56677;51.710;5.366;2023-04-28T12:37:10;6.10;;;2.00;;
69485;SDS011;56677;51.710;5.366;2023-04-28T12:39:35;9.40;;;3.00;;
69485;SDS011;56677;51.710;5.366;2023-04-28T12:42:01;5.27;;;2.10;;
69485;SDS011;56677;51.710;5.366;2023-04-28T12:44:26;5.53;;;1.70;;
69485;SDS011;56677;51.710;5.366;2023-04-28T12:46:51;5.83;;;2.43;;
69485;SDS011;56677;51.710;5.366;2023-04-28T12:49:17;4.73;;;1.83;;
69485;SDS011;56677;51.710;5.366;2023-04-28T12:51:42;3.40;;;1.93;;
69485;SDS011;56677;51.710;5.366;2023-04-28T12:54:07;5.47;;;2.20;;
69485;SDS011;56677;51.710;5.366;2023-04-28T12:56:32;7.07;;;2.00;;
69485;SDS011;56677;51.710;5.366;2023-04-28T12:58:57;5.60;;;2.07;;
69485;SDS011;56677;51.710;5.366;2023-04-28T13:01:22;8.83;;;2.33;;
69485;SDS011;56677;51.710;5.366;2023-04-28T13:03:48;11.03;;;2.10;;
69485;SDS011;56677;51.710;5.366;2023-04-28T13:06:13;4.80;;;1.80;;
69485;SDS011;56677;51.710;5.366;2023-04-28T13:08:38;3.60;;;1.90;;
69485;SDS011;56677;51.710;5.366;2023-04-28T13:11:03;7.17;;;2.10;;
69485;SDS011;56677;51.710;5.366;2023-04-28T13:13:28;3.83;;;1.73;;
69485;SDS011;56677;51.710;5.366;2023-04-28T13:15:53;8.98;;;2.17;;
69485;SDS011;56677;51.710;5.366;2023-04-28T13:18:19;9.57;;;2.00;;
69485;SDS011;56677;51.710;5.366;2023-04-28T13:20:44;6.07;;;2.27;;
69485;SDS011;56677;51.710;5.366;2023-04-28T13:23:09;7.50;;;1.90;;
69485;SDS011;56677;51.710;5.366;2023-04-28T13:25:34;12.53;;;1.93;;
69485;SDS011;56677;51.710;5.366;2023-04-28T13:27:59;5.35;;;1.95;;
69485;SDS011;56677;51.710;5.366;2023-04-28T13:30:24;6.23;;;1.60;;
69485;SDS011;56677;51.710;5.366;2023-04-28T13:32:50;7.82;;;2.25;;
69485;SDS011;56677;51.710;5.366;2023-04-28T13:35:15;7.90;;;1.80;;
69485;SDS011;56677;51.710;5.366;2023-04-28T13:37:40;6.93;;;1.85;;
69485;SDS011;56677;51.710;5.366;2023-04-28T13:40:05;6.70;;;1.93;;
69485;SDS011;56677;51.710;5.366;2023-04-28T13:42:30;5.03;;;2.03;;
69485;SDS011;56677;51.710;5.366;2023-04-28T13:44:56;4.93;;;2.00;;
69485;SDS011;56677;51.710;5.366;2023-04-28T13:47:21;6.47;;;2.00;;
69485;SDS011;56677;51.710;5.366;2023-04-28T13:49:46;4.93;;;1.77;;
69485;SDS011;56677;51.710;5.366;2023-04-28T13:52:11;5.47;;;1.70;;
69485;SDS011;56677;51.710;5.366;2023-04-28T13:54:36;3.20;;;1.90;;
69485;SDS011;56677;51.710;5.366;2023-04-28T13:57:01;4.50;;;1.65;;
69485;SDS011;56677;51.710;5.366;2023-04-28T13:59:27;7.60;;;1.90;;
69485;SDS011;56677;51.710;5.366;2023-04-28T14:01:52;6.03;;;1.70;;
69485;SDS011;56677;51.710;5.366;2023-04-28T14:04:17;8.20;;;2.00;;
69485;SDS011;56677;51.710;5.366;2023-04-28T14:06:42;3.73;;;1.53;;
69485;SDS011;56677;51.710;5.366;2023-04-28T14:09:07;4.60;;;1.40;;
69485;SDS011;56677;51.710;5.366;2023-04-28T14:11:32;8.07;;;2.23;;
69485;SDS011;56677;51.710;5.366;2023-04-28T14:13:57;6.70;;;2.03;;
69485;SDS011;56677;51.710;5.366;2023-04-28T14:16:23;5.57;;;2.10;;
69485;SDS011;56677;51.710;5.366;2023-04-28T14:18:48;5.93;;;1.83;;
69485;SDS011;56677;51.710;5.366;2023-04-28T14:21:13;5.90;;;1.80;;
69485;SDS011;56677;51.710;5.366;2023-04-28T14:23:38;4.60;;;1.70;;
69485;SDS011;56677;51.710;5.366;2023-04-28T14:26:03;4.17;;;1.70;;
69485;SDS011;56677;51.710;5.366;2023-04-28T14:28:28;6.17;;;1.90;;
69485;SDS011;56677;51.710;5.366;2023-04-28T14:30:53;6.65;;;1.77;;
69485;SDS011;56677;51.710;5.366;2023-04-28T14:33:19;3.20;;;1.70;;
69485;SDS011;56677;51.710;5.366;2023-04-28T14:35:44;6.87;;;1.93;;
69485;SDS011;56677;51.710;5.366;2023-04-28T14:38:09;3.70;;;1.60;;
69485;SDS011;56677;51.710;5.366;2023-04-28T14:40:34;6.87;;;1.50;;
69485;SDS011;56677;51.710;5.366;2023-04-28T14:42:59;5.73;;;2.03;;
69485;SDS011;56677;51.710;5.366;2023-04-28T14:45:25;5.70;;;1.83;;
69485;SDS011;56677;51.710;5.366;2023-04-28T14:47:50;4.90;;;1.90;;
69485;SDS011;56677;51.710;5.366;2023-04-28T14:50:15;5.53;;;1.80;;
69485;SDS011;56677;51.710;5.366;2023-04-28T14:52:40;9.35;;;2.13;;
69485;SDS011;56677;51.710;5.366;2023-04-28T14:55:05;4.30;;;1.90;;
69485;SDS011;56677;51.710;5.366;2023-04-28T14:57:30;5.93;;;1.90;;
69485;SDS011;56677;51.710;5.366;2023-04-28T14:59:56;3.00;;;1.92;;
69485;SDS011;56677;51.710;5.366;2023-04-28T15:02:21;5.43;;;1.65;;
69485;SDS011;56677;51.710;5.366;2023-04-28T15:04:46;3.83;;;1.30;;
69485;SDS011;56677;51.710;5.366;2023-04-28T15:07:12;5.33;;;1.70;;
69485;SDS011;56677;51.710;5.366;2023-04-28T15:09:37;4.53;;;1.67;;
69485;SDS011;56677;51.710;5.366;2023-04-28T15:12:02;8.97;;;1.70;;
69485;SDS011;56677;51.710;5.366;2023-04-28T15:14:28;3.87;;;1.70;;
69485;SDS011;56677;51.710;5.366;2023-04-28T15:16:53;7.00;;;1.83;;
69485;SDS011;56677;51.710;5.366;2023-04-28T15:19:18;4.30;;;1.67;;
69485;SDS011;56677;51.710;5.366;2023-04-28T15:21:43;3.27;;;1.60;;
69485;SDS011;56677;51.710;5.366;2023-04-28T15:24:09;4.87;;;1.63;;
69485;SDS011;56677;51.710;5.366;2023-04-28T15:26:34;5.30;;;1.35;;
69485;SDS011;56677;51.710;5.366;2023-04-28T15:28:59;6.53;;;1.75;;
69485;SDS011;56677;51.710;5.366;2023-04-28T15:31:24;6.35;;;1.83;;
69485;SDS011;56677;51.710;5.366;2023-04-28T15:33:49;14.00;;;2.20;;
69485;SDS011;56677;51.710;5.366;2023-04-28T15:36:14;9.40;;;2.00;;
69485;SDS011;56677;51.710;5.366;2023-04-28T15:38:40;8.43;;;1.63;;
69485;SDS011;56677;51.710;5.366;2023-04-28T15:41:05;7.07;;;1.80;;
69485;SDS011;56677;51.710;5.366;2023-04-28T15:43:30;5.53;;;2.08;;
69485;SDS011;56677;51.710;5.366;2023-04-28T15:45:55;9.27;;;2.93;;
69485;SDS011;56677;51.710;5.366;2023-04-28T15:48:20;7.20;;;3.43;;
69485;SDS011;56677;51.710;5.366;2023-04-28T15:50:45;11.38;;;3.80;;
69485;SDS011;56677;51.710;5.366;2023-04-28T15:53:10;8.52;;;4.15;;
69485;SDS011;56677;51.710;5.366;2023-04-28T15:55:36;9.50;;;3.38;;
69485;SDS011;56677;51.710;5.366;2023-04-28T15:58:01;11.85;;;4.35;;
69485;SDS011;56677;51.710;5.366;2023-04-28T16:00:26;13.10;;;4.10;;
69485;SDS011;56677;51.710;5.366;2023-04-28T16:02:51;7.70;;;3.50;;
69485;SDS011;56677;51.710;5.366;2023-04-28T16:05:16;12.67;;;4.30;;
69485;SDS011;56677;51.710;5.366;2023-04-28T16:07:41;11.05;;;4.40;;
69485;SDS011;56677;51.710;5.366;2023-04-28T16:10:08;11.67;;;4.83;;
69485;SDS011;56677;51.710;5.366;2023-04-28T16:12:33;7.73;;;4.33;;
69485;SDS011;56677;51.710;5.366;2023-04-28T16:14:59;15.23;;;4.68;;
69485;SDS011;56677;51.710;5.366;2023-04-28T16:17:24;10.10;;;4.10;;
69485;SDS011;56677;51.710;5.366;2023-04-28T16:19:49;12.77;;;4.20;;
69485;SDS011;56677;51.710;5.366;2023-04-28T16:22:14;10.40;;;4.38;;
69485;SDS011;56677;51.710;5.366;2023-04-28T16:24:39;8.15;;;3.80;;
69485;SDS011;56677;51.710;5.366;2023-04-28T16:27:05;12.93;;;4.70;;
69485;SDS011;56677;51.710;5.366;2023-04-28T16:29:30;9.90;;;3.90;;
69485;SDS011;56677;51.710;5.366;2023-04-28T16:31:55;8.43;;;3.80;;
69485;SDS011;56677;51.710;5.366;2023-04-28T16:34:20;11.95;;;3.88;;
69485;SDS011;56677;51.710;5.366;2023-04-28T16:36:45;11.52;;;3.78;;
69485;SDS011;56677;51.710;5.366;2023-04-28T16:39:10;10.23;;;4.03;;
69485;SDS011;56677;51.710;5.366;2023-04-28T16:41:36;11.43;;;3.90;;
69485;SDS011;56677;51.710;5.366;2023-04-28T16:44:01;7.15;;;3.90;;
69485;SDS011;56677;51.710;5.366;2023-04-28T16:46:26;10.30;;;3.97;;
69485;SDS011;56677;51.710;5.366;2023-04-28T16:48:51;11.00;;;4.55;;
69485;SDS011;56677;51.710;5.366;2023-04-28T16:51:16;10.17;;;3.47;;
69485;SDS011;56677;51.710;5.366;2023-04-28T16:53:41;6.72;;;3.78;;
69485;SDS011;56677;51.710;5.366;2023-04-28T16:56:06;6.35;;;3.58;;
69485;SDS011;56677;51.710;5.366;2023-04-28T16:58:32;10.20;;;4.07;;
69485;SDS011;56677;51.710;5.366;2023-04-28T17:00:57;6.63;;;3.45;;
69485;SDS011;56677;51.710;5.366;2023-04-28T17:03:22;9.97;;;3.97;;
69485;SDS011;56677;51.710;5.366;2023-04-28T17:05:47;14.30;;;4.10;;
69485;SDS011;56677;51.710;5.366;2023-04-28T17:08:12;9.33;;;3.83;;
69485;SDS011;56677;51.710;5.366;2023-04-28T17:10:37;11.53;;;3.57;;
69485;SDS011;56677;51.710;5.366;2023-04-28T17:13:03;14.70;;;3.58;;
69485;SDS011;56677;51.710;5.366;2023-04-28T17:15:28;12.37;;;3.97;;
69485;SDS011;56677;51.710;5.366;2023-04-28T17:17:53;11.90;;;3.67;;
69485;SDS011;56677;51.710;5.366;2023-04-28T17:20:18;9.83;;;3.30;;
69485;SDS011;56677;51.710;5.366;2023-04-28T17:22:43;8.57;;;3.30;;
69485;SDS011;56677;51.710;5.366;2023-04-28T17:25:09;6.77;;;3.20;;
69485;SDS011;56677;51.710;5.366;2023-04-28T17:27:35;13.13;;;3.30;;
69485;SDS011;56677;51.710;5.366;2023-04-28T17:30:00;8.65;;;3.30;;
69485;SDS011;56677;51.710;5.366;2023-04-28T17:32:25;9.17;;;3.63;;
69485;SDS011;56677;51.710;5.366;2023-04-28T17:34:50;9.00;;;3.00;;
69485;SDS011;56677;51.710;5.366;2023-04-28T17:37:15;8.17;;;3.57;;
69485;SDS011;56677;51.710;5.366;2023-04-28T17:39:40;7.80;;;3.43;;
69485;SDS011;56677;51.710;5.366;2023-04-28T17:42:05;7.70;;;3.20;;
69485;SDS011;56677;51.710;5.366;2023-04-28T17:44:31;8.40;;;2.67;;
69485;SDS011;56677;51.710;5.366;2023-04-28T17:46:56;6.57;;;3.38;;
69485;SDS011;56677;51.710;5.366;2023-04-28T17:49:21;5.83;;;3.50;;
69485;SDS011;56677;51.710;5.366;2023-04-28T17:51:47;9.45;;;3.25;;
69485;SDS011;56677;51.710;5.366;2023-04-28T17:54:12;7.55;;;3.20;;
69485;SDS011;56677;51.710;5.366;2023-04-28T17:56:37;7.87;;;3.30;;
69485;SDS011;56677;51.710;5.366;2023-04-28T17:59:03;8.03;;;3.00;;
69485;SDS011;56677;51.710;5.366;2023-04-28T18:01:28;6.63;;;2.60;;
69485;SDS011;56677;51.710;5.366;2023-04-28T18:03:53;7.30;;;2.70;;
69485;SDS011;56677;51.710;5.366;2023-04-28T18:06:19;7.00;;;2.93;;
69485;SDS011;56677;51.710;5.366;2023-04-28T18:08:44;7.00;;;2.90;;
69485;SDS011;56677;51.710;5.366;2023-04-28T18:11:09;5.40;;;2.37;;
69485;SDS011;56677;51.710;5.366;2023-04-28T18:13:34;5.83;;;2.57;;
69485;SDS011;56677;51.710;5.366;2023-04-28T18:15:59;7.33;;;2.80;;
69485;SDS011;56677;51.710;5.366;2023-04-28T18:18:25;9.15;;;3.03;;
69485;SDS011;56677;51.710;5.366;2023-04-28T18:20:55;6.50;;;2.60;;
69485;SDS011;56677;51.710;5.366;2023-04-28T18:23:20;5.80;;;2.70;;
69485;SDS011;56677;51.710;5.366;2023-04-28T18:25:45;8.67;;;2.93;;
69485;SDS011;56677;51.710;5.366;2023-04-28T18:28:10;6.22;;;2.40;;
69485;SDS011;56677;51.710;5.366;2023-04-28T18:30:36;6.82;;;2.60;;
69485;SDS011;56677;51.710;5.366;2023-04-28T18:33:01;4.45;;;2.95;;
69485;SDS011;56677;51.710;5.366;2023-04-28T18:35:26;6.10;;;2.70;;
69485;SDS011;56677;51.710;5.366;2023-04-28T18:37:51;7.40;;;2.60;;
69485;SDS011;56677;51.710;5.366;2023-04-28T18:40:16;5.70;;;3.00;;
69485;SDS011;56677;51.710;5.366;2023-04-28T18:42:41;9.10;;;2.40;;
69485;SDS011;56677;51.710;5.366;2023-04-28T18:45:07;7.20;;;2.90;;
69485;SDS011;56677;51.710;5.366;2023-04-28T18:47:32;5.70;;;2.70;;
69485;SDS011;56677;51.710;5.366;2023-04-28T18:49:57;5.53;;;2.37;;
69485;SDS011;56677;51.710;5.366;2023-04-28T18:52:23;5.13;;;2.60;;
69485;SDS011;56677;51.710;5.366;2023-04-28T18:54:48;5.90;;;3.03;;
69485;SDS011;56677;51.710;5.366;2023-04-28T18:57:14;5.80;;;2.33;;
69485;SDS011;56677;51.710;5.366;2023-04-28T18:59:40;4.15;;;2.60;;
69485;SDS011;56677;51.710;5.366;2023-04-28T19:02:05;4.83;;;2.70;;
69485;SDS011;56677;51.710;5.366;2023-04-28T19:04:30;4.10;;;2.37;;
69485;SDS011;56677;51.710;5.366;2023-04-28T19:06:55;6.32;;;2.30;;
69485;SDS011;56677;51.710;5.366;2023-04-28T19:09:20;6.03;;;2.70;;
69485;SDS011;56677;51.710;5.366;2023-04-28T19:11:45;4.88;;;2.67;;
69485;SDS011;56677;51.710;5.366;2023-04-28T19:14:11;4.77;;;2.47;;
69485;SDS011;56677;51.710;5.366;2023-04-28T19:16:36;6.50;;;2.30;;
69485;SDS011;56677;51.710;5.366;2023-04-28T19:19:01;8.23;;;2.65;;
69485;SDS011;56677;51.710;5.366;2023-04-28T19:21:26;6.10;;;3.10;;
69485;SDS011;56677;51.710;5.366;2023-04-28T19:23:51;4.32;;;2.65;;
69485;SDS011;56677;51.710;5.366;2023-04-28T19:26:17;7.47;;;2.73;;
69485;SDS011;56677;51.710;5.366;2023-04-28T19:28:42;5.25;;;3.08;;
69485;SDS011;56677;51.710;5.366;2023-04-28T19:31:07;6.18;;;2.25;;
69485;SDS011;56677;51.710;5.366;2023-04-28T19:33:32;3.72;;;2.30;;
69485;SDS011;56677;51.710;5.366;2023-04-28T19:35:57;5.60;;;2.67;;
69485;SDS011;56677;51.710;5.366;2023-04-28T19:38:22;4.80;;;2.47;;
69485;SDS011;56677;51.710;5.366;2023-04-28T19:40:48;6.83;;;2.47;;
69485;SDS011;56677;51.710;5.366;2023-04-28T19:43:13;5.20;;;2.08;;
69485;SDS011;56677;51.710;5.366;2023-04-28T19:45:39;6.30;;;2.30;;
69485;SDS011;56677;51.710;5.366;2023-04-28T19:48:05;4.90;;;2.80;;
69485;SDS011;56677;51.710;5.366;2023-04-28T19:50:30;4.15;;;2.30;;
69485;SDS011;56677;51.710;5.366;2023-04-28T19:52:55;5.00;;;2.50;;
69485;SDS011;56677;51.710;5.366;2023-04-28T19:55:21;5.80;;;2.40;;
69485;SDS011;56677;51.710;5.366;2023-04-28T19:57:46;5.22;;;2.22;;
69485;SDS011;56677;51.710;5.366;2023-04-28T20:00:12;6.13;;;2.35;;
69485;SDS011;56677;51.710;5.366;2023-04-28T20:02:37;4.30;;;2.10;;
69485;SDS011;56677;51.710;5.366;2023-04-28T20:05:02;3.80;;;2.38;;
69485;SDS011;56677;51.710;5.366;2023-04-28T20:07:27;6.20;;;2.70;;
69485;SDS011;56677;51.710;5.366;2023-04-28T20:09:52;4.07;;;2.30;;
69485;SDS011;56677;51.710;5.366;2023-04-28T20:12:18;5.00;;;2.58;;
69485;SDS011;56677;51.710;5.366;2023-04-28T20:14:43;5.20;;;2.30;;
69485;SDS011;56677;51.710;5.366;2023-04-28T20:17:08;4.00;;;2.20;;
69485;SDS011;56677;51.710;5.366;2023-04-28T20:19:33;5.88;;;2.13;;
69485;SDS011;56677;51.710;5.366;2023-04-28T20:22:00;6.63;;;2.70;;
69485;SDS011;56677;51.710;5.366;2023-04-28T20:24:25;4.82;;;2.35;;
69485;SDS011;56677;51.710;5.366;2023-04-28T20:26:50;4.95;;;2.20;;
69485;SDS011;56677;51.710;5.366;2023-04-28T20:29:16;4.18;;;2.00;;
69485;SDS011;56677;51.710;5.366;2023-04-28T20:31:41;4.75;;;2.00;;
69485;SDS011;56677;51.710;5.366;2023-04-28T20:34:06;3.83;;;2.20;;
69485;SDS011;56677;51.710;5.366;2023-04-28T20:36:31;3.73;;;2.00;;
69485;SDS011;56677;51.710;5.366;2023-04-28T20:38:56;4.55;;;1.83;;
69485;SDS011;56677;51.710;5.366;2023-04-28T20:41:22;3.97;;;2.00;;